sensor_id;sensor_type;location;lat;lon;timestamp;P1;durP1;ratioP1;P2;durP2;ratioP2
18647;SDS011;9453;50.294;18.644;2023-04-01T04:06:02;4.00;;;2.10;;
18647;SDS011;9453;50.294;18.644;2023-04-01T04:08:29;7.73;;;2.77;;
18647;SDS011;9453;50.294;18.644;2023-04-01T04:11:05;3.87;;;2.30;;
18647;SDS011;9453;50.294;18.644;2023-04-01T04:13:32;5.70;;;2.57;;
18647;SDS011;9453;50.294;18.644;2023-04-01T04:16:01;3.87;;;2.13;;
18647;SDS011;9453;50.294;18.644;2023-04-01T04:18:28;6.40;;;2.60;;
18647;SDS011;9453;50.294;18.644;2023-04-01T04:20:55;4.53;;;2.47;;
18647;SDS011;9453;50.294;18.644;2023-04-01T04:23:24;4.10;;;2.47;;
18647;SDS011;9453;50.294;18.644;2023-04-01T04:25:55;5.17;;;2.33;;
18647;SDS011;9453;50.294;18.644;2023-04-01T04:28:23;4.67;;;2.70;;
18647;SDS011;9453;50.294;18.644;2023-04-01T04:30:51;2.67;;;1.80;;
18647;SDS011;9453;50.294;18.644;2023-04-01T04:33:18;3.40;;;1.97;;
18647;SDS011;9453;50.294;18.644;2023-04-01T04:35:45;3.13;;;2.00;;
18647;SDS011;9453;50.294;18.644;2023-04-01T04:38:12;7.60;;;2.30;;
18647;SDS011;9453;50.294;18.644;2023-04-01T04:40:41;5.37;;;2.23;;
18647;SDS011;9453;50.294;18.644;2023-04-01T04:43:10;5.23;;;2.00;;
18647;SDS011;9453;50.294;18.644;2023-04-01T04:45:37;6.27;;;2.20;;
18647;SDS011;9453;50.294;18.644;2023-04-01T04:48:04;5.87;;;2.57;;
18647;SDS011;9453;50.294;18.644;2023-04-01T04:50:33;5.57;;;2.40;;
18647;SDS011;9453;50.294;18.644;2023-04-01T04:53:00;6.33;;;2.37;;
18647;SDS011;9453;50.294;18.644;2023-04-01T04:55:28;8.60;;;2.80;;
18647;SDS011;9453;50.294;18.644;2023-04-01T04:57:56;6.87;;;2.83;;
18647;SDS011;9453;50.294;18.644;2023-04-01T05:00:23;5.10;;;2.63;;
18647;SDS011;9453;50.294;18.644;2023-04-01T05:02:50;8.57;;;2.70;;
18647;SDS011;9453;50.294;18.644;2023-04-01T05:05:19;9.93;;;3.03;;
18647;SDS011;9453;50.294;18.644;2023-04-01T05:07:46;7.53;;;3.40;;
18647;SDS011;9453;50.294;18.644;2023-04-01T05:10:13;7.90;;;3.33;;
18647;SDS011;9453;50.294;18.644;2023-04-01T05:12:40;6.83;;;3.07;;
18647;SDS011;9453;50.294;18.644;2023-04-01T05:15:09;5.53;;;2.67;;
18647;SDS011;9453;50.294;18.644;2023-04-01T05:17:37;7.20;;;3.10;;
18647;SDS011;9453;50.294;18.644;2023-04-01T05:20:04;6.47;;;2.60;;
18647;SDS011;9453;50.294;18.644;2023-04-01T05:22:32;9.23;;;3.40;;
18647;SDS011;9453;50.294;18.644;2023-04-01T05:24:59;6.70;;;2.30;;
18647;SDS011;9453;50.294;18.644;2023-04-01T05:27:26;9.17;;;2.50;;
18647;SDS011;9453;50.294;18.644;2023-04-01T05:29:53;11.47;;;3.10;;
18647;SDS011;9453;50.294;18.644;2023-04-01T05:32:22;4.23;;;2.37;;
18647;SDS011;9453;50.294;18.644;2023-04-01T05:34:50;4.43;;;2.20;;
18647;SDS011;9453;50.294;18.644;2023-04-01T05:37:17;7.63;;;2.70;;
18647;SDS011;9453;50.294;18.644;2023-04-01T05:39:44;4.97;;;2.40;;
18647;SDS011;9453;50.294;18.644;2023-04-01T05:42:14;4.33;;;2.20;;
18647;SDS011;9453;50.294;18.644;2023-04-01T05:44:41;4.37;;;2.07;;
18647;SDS011;9453;50.294;18.644;2023-04-01T05:47:08;3.60;;;2.17;;
18647;SDS011;9453;50.294;18.644;2023-04-01T05:49:36;4.33;;;2.33;;
18647;SDS011;9453;50.294;18.644;2023-04-01T05:52:03;3.47;;;2.20;;
18647;SDS011;9453;50.294;18.644;2023-04-01T05:54:30;5.20;;;2.60;;
18647;SDS011;9453;50.294;18.644;2023-04-01T05:56:57;6.27;;;2.97;;
18647;SDS011;9453;50.294;18.644;2023-04-01T05:59:24;12.43;;;3.63;;
18647;SDS011;9453;50.294;18.644;2023-04-01T06:01:51;4.90;;;2.93;;
18647;SDS011;9453;50.294;18.644;2023-04-01T06:04:18;10.50;;;3.20;;
18647;SDS011;9453;50.294;18.644;2023-04-01T06:06:47;6.53;;;2.63;;
18647;SDS011;9453;50.294;18.644;2023-04-01T06:09:15;6.20;;;2.80;;
18647;SDS011;9453;50.294;18.644;2023-04-01T06:11:48;8.77;;;2.60;;
18647;SDS011;9453;50.294;18.644;2023-04-01T06:14:28;5.27;;;3.07;;
18647;SDS011;9453;50.294;18.644;2023-04-01T06:17:07;5.73;;;2.77;;
18647;SDS011;9453;50.294;18.644;2023-04-01T06:19:50;6.43;;;3.00;;
18647;SDS011;9453;50.294;18.644;2023-04-01T06:22:29;6.43;;;3.20;;
18647;SDS011;9453;50.294;18.644;2023-04-01T06:25:28;7.77;;;3.40;;
18647;SDS011;9453;50.294;18.644;2023-04-01T06:28:05;5.37;;;2.80;;
18647;SDS011;9453;50.294;18.644;2023-04-01T06:30:49;6.77;;;2.70;;
18647;SDS011;9453;50.294;18.644;2023-04-01T06:33:32;5.77;;;2.80;;
18647;SDS011;9453;50.294;18.644;2023-04-01T06:36:15;7.63;;;2.70;;
18647;SDS011;9453;50.294;18.644;2023-04-01T06:39:11;6.50;;;2.90;;
18647;SDS011;9453;50.294;18.644;2023-04-01T06:45:04;5.20;;;2.30;;
18647;SDS011;9453;50.294;18.644;2023-04-01T06:47:41;7.63;;;2.83;;
18647;SDS011;9453;50.294;18.644;2023-04-01T06:50:26;6.20;;;2.80;;
18647;SDS011;9453;50.294;18.644;2023-04-01T06:52:58;8.17;;;2.70;;
18647;SDS011;9453;50.294;18.644;2023-04-01T06:55:35;6.63;;;2.27;;
18647;SDS011;9453;50.294;18.644;2023-04-01T06:58:10;5.97;;;2.63;;
18647;SDS011;9453;50.294;18.644;2023-04-01T07:00:43;7.83;;;2.50;;
18647;SDS011;9453;50.294;18.644;2023-04-01T07:03:15;5.53;;;2.77;;
18647;SDS011;9453;50.294;18.644;2023-04-01T07:05:46;3.87;;;2.30;;
18647;SDS011;9453;50.294;18.644;2023-04-01T07:08:16;8.10;;;2.63;;
18647;SDS011;9453;50.294;18.644;2023-04-01T07:10:50;8.20;;;3.40;;
18647;SDS011;9453;50.294;18.644;2023-04-01T07:13:20;8.70;;;2.90;;
18647;SDS011;9453;50.294;18.644;2023-04-01T07:15:54;5.33;;;2.70;;
18647;SDS011;9453;50.294;18.644;2023-04-01T07:18:30;7.10;;;3.37;;
18647;SDS011;9453;50.294;18.644;2023-04-01T07:21:02;7.07;;;3.30;;
18647;SDS011;9453;50.294;18.644;2023-04-01T07:23:32;7.83;;;3.37;;
18647;SDS011;9453;50.294;18.644;2023-04-01T07:26:06;7.83;;;3.10;;
18647;SDS011;9453;50.294;18.644;2023-04-01T07:28:41;11.07;;;3.90;;
18647;SDS011;9453;50.294;18.644;2023-04-01T07:31:13;6.97;;;3.20;;
18647;SDS011;9453;50.294;18.644;2023-04-01T07:33:49;6.23;;;3.20;;
18647;SDS011;9453;50.294;18.644;2023-04-01T07:36:25;7.80;;;3.10;;
18647;SDS011;9453;50.294;18.644;2023-04-01T07:39:02;5.73;;;3.27;;
18647;SDS011;9453;50.294;18.644;2023-04-01T07:41:45;5.13;;;2.83;;
18647;SDS011;9453;50.294;18.644;2023-04-01T07:44:20;11.07;;;3.63;;
18647;SDS011;9453;50.294;18.644;2023-04-01T07:49:59;7.63;;;3.10;;
18647;SDS011;9453;50.294;18.644;2023-04-01T07:52:34;5.07;;;2.83;;
18647;SDS011;9453;50.294;18.644;2023-04-01T07:55:09;6.97;;;3.00;;
18647;SDS011;9453;50.294;18.644;2023-04-01T07:57:46;9.60;;;3.20;;
18647;SDS011;9453;50.294;18.644;2023-04-01T08:00:19;6.17;;;3.10;;
18647;SDS011;9453;50.294;18.644;2023-04-01T08:02:54;3.90;;;2.53;;
18647;SDS011;9453;50.294;18.644;2023-04-01T08:05:40;5.43;;;2.80;;
18647;SDS011;9453;50.294;18.644;2023-04-01T08:08:13;5.47;;;2.20;;
18647;SDS011;9453;50.294;18.644;2023-04-01T08:10:47;5.93;;;2.80;;
18647;SDS011;9453;50.294;18.644;2023-04-01T08:13:23;5.95;;;2.65;;
18647;SDS011;9453;50.294;18.644;2023-04-01T08:16:01;4.50;;;2.20;;
18647;SDS011;9453;50.294;18.644;2023-04-01T08:18:39;5.28;;;2.30;;
18647;SDS011;9453;50.294;18.644;2023-04-01T08:21:12;5.37;;;1.90;;
18647;SDS011;9453;50.294;18.644;2023-04-01T08:23:43;4.97;;;2.63;;
18647;SDS011;9453;50.294;18.644;2023-04-01T08:26:15;6.72;;;2.60;;
18647;SDS011;9453;50.294;18.644;2023-04-01T08:28:50;6.50;;;2.07;;
18647;SDS011;9453;50.294;18.644;2023-04-01T08:31:23;3.40;;;2.40;;
18647;SDS011;9453;50.294;18.644;2023-04-01T08:33:56;6.77;;;2.67;;
18647;SDS011;9453;50.294;18.644;2023-04-01T08:36:24;4.10;;;2.63;;
18647;SDS011;9453;50.294;18.644;2023-04-01T08:38:55;5.63;;;3.00;;
18647;SDS011;9453;50.294;18.644;2023-04-01T08:41:29;5.90;;;2.67;;
18647;SDS011;9453;50.294;18.644;2023-04-01T08:44:29;8.07;;;2.60;;
18647;SDS011;9453;50.294;18.644;2023-04-01T08:47:21;3.80;;;2.43;;
18647;SDS011;9453;50.294;18.644;2023-04-01T08:53:25;3.10;;;1.93;;
18647;SDS011;9453;50.294;18.644;2023-04-01T08:56:06;3.88;;;2.30;;
18647;SDS011;9453;50.294;18.644;2023-04-01T08:58:53;4.10;;;2.00;;
18647;SDS011;9453;50.294;18.644;2023-04-01T09:01:54;5.93;;;2.47;;
18647;SDS011;9453;50.294;18.644;2023-04-01T09:04:42;3.23;;;2.33;;
18647;SDS011;9453;50.294;18.644;2023-04-01T09:07:35;5.00;;;2.20;;
18647;SDS011;9453;50.294;18.644;2023-04-01T09:13:13;4.22;;;2.20;;
18647;SDS011;9453;50.294;18.644;2023-04-01T09:16:17;2.50;;;1.75;;
18647;SDS011;9453;50.294;18.644;2023-04-01T09:19:08;3.20;;;1.80;;
18647;SDS011;9453;50.294;18.644;2023-04-01T09:21:54;2.25;;;1.40;;
18647;SDS011;9453;50.294;18.644;2023-04-01T09:24:35;2.35;;;1.00;;
18647;SDS011;9453;50.294;18.644;2023-04-01T09:27:19;3.35;;;1.38;;
18647;SDS011;9453;50.294;18.644;2023-04-01T09:29:59;1.60;;;1.00;;
18647;SDS011;9453;50.294;18.644;2023-04-01T09:32:50;1.60;;;1.05;;
18647;SDS011;9453;50.294;18.644;2023-04-01T09:35:45;1.70;;;0.90;;
18647;SDS011;9453;50.294;18.644;2023-04-01T09:38:23;4.53;;;0.95;;
18647;SDS011;9453;50.294;18.644;2023-04-01T09:40:57;1.33;;;0.93;;
18647;SDS011;9453;50.294;18.644;2023-04-01T09:43:28;2.35;;;0.95;;
18647;SDS011;9453;50.294;18.644;2023-04-01T09:49:08;3.58;;;1.23;;
18647;SDS011;9453;50.294;18.644;2023-04-01T09:52:04;2.30;;;1.17;;
18647;SDS011;9453;50.294;18.644;2023-04-01T09:54:51;1.27;;;0.90;;
18647;SDS011;9453;50.294;18.644;2023-04-01T09:57:39;2.13;;;1.05;;
18647;SDS011;9453;50.294;18.644;2023-04-01T10:03:33;2.42;;;1.17;;
18647;SDS011;9453;50.294;18.644;2023-04-01T10:06:56;2.00;;;1.10;;
18647;SDS011;9453;50.294;18.644;2023-04-01T10:09:57;1.58;;;1.00;;
18647;SDS011;9453;50.294;18.644;2023-04-01T10:13:15;1.98;;;1.17;;
18647;SDS011;9453;50.294;18.644;2023-04-01T10:16:06;1.83;;;1.20;;
18647;SDS011;9453;50.294;18.644;2023-04-01T10:18:56;4.55;;;1.52;;
18647;SDS011;9453;50.294;18.644;2023-04-01T10:24:53;1.90;;;1.30;;
18647;SDS011;9453;50.294;18.644;2023-04-01T10:27:50;2.33;;;1.30;;
18647;SDS011;9453;50.294;18.644;2023-04-01T10:33:52;4.33;;;1.47;;
18647;SDS011;9453;50.294;18.644;2023-04-01T10:36:50;2.10;;;1.50;;
18647;SDS011;9453;50.294;18.644;2023-04-01T10:42:46;1.80;;;0.90;;
18647;SDS011;9453;50.294;18.644;2023-04-01T10:49:05;2.72;;;1.40;;
18647;SDS011;9453;50.294;18.644;2023-04-01T10:55:19;1.80;;;0.98;;
18647;SDS011;9453;50.294;18.644;2023-04-01T11:01:07;1.13;;;0.85;;
18647;SDS011;9453;50.294;18.644;2023-04-01T11:10:06;1.20;;;0.70;;
18647;SDS011;9453;50.294;18.644;2023-04-01T11:16:00;2.88;;;1.42;;
18647;SDS011;9453;50.294;18.644;2023-04-01T11:22:17;2.35;;;1.50;;
18647;SDS011;9453;50.294;18.644;2023-04-01T11:28:18;1.23;;;1.08;;
18647;SDS011;9453;50.294;18.644;2023-04-01T11:31:19;1.80;;;1.30;;
18647;SDS011;9453;50.294;18.644;2023-04-01T11:33:55;2.47;;;1.20;;
18647;SDS011;9453;50.294;18.644;2023-04-01T11:36:34;1.58;;;1.20;;
18647;SDS011;9453;50.294;18.644;2023-04-01T11:39:18;2.55;;;1.10;;
18647;SDS011;9453;50.294;18.644;2023-04-01T11:41:52;2.70;;;1.25;;
18647;SDS011;9453;50.294;18.644;2023-04-01T11:44:28;4.00;;;1.70;;
18647;SDS011;9453;50.294;18.644;2023-04-01T11:50:11;1.75;;;1.10;;
18647;SDS011;9453;50.294;18.644;2023-04-01T11:52:55;2.40;;;1.20;;
18647;SDS011;9453;50.294;18.644;2023-04-01T11:55:31;3.78;;;1.05;;
18647;SDS011;9453;50.294;18.644;2023-04-01T11:58:12;5.80;;;1.80;;
18647;SDS011;9453;50.294;18.644;2023-04-01T12:00:57;4.93;;;2.50;;
18647;SDS011;9453;50.294;18.644;2023-04-01T12:03:41;6.30;;;2.30;;
18647;SDS011;9453;50.294;18.644;2023-04-01T12:06:33;4.30;;;2.00;;
18647;SDS011;9453;50.294;18.644;2023-04-01T12:09:08;2.92;;;1.50;;
18647;SDS011;9453;50.294;18.644;2023-04-01T12:11:46;2.38;;;1.73;;
18647;SDS011;9453;50.294;18.644;2023-04-01T12:14:20;2.78;;;1.50;;
18647;SDS011;9453;50.294;18.644;2023-04-01T12:16:56;3.92;;;1.63;;
18647;SDS011;9453;50.294;18.644;2023-04-01T12:19:35;4.03;;;1.40;;
18647;SDS011;9453;50.294;18.644;2023-04-01T12:22:19;2.83;;;1.40;;
18647;SDS011;9453;50.294;18.644;2023-04-01T12:25:03;3.35;;;1.20;;
18647;SDS011;9453;50.294;18.644;2023-04-01T12:27:43;2.95;;;1.20;;
18647;SDS011;9453;50.294;18.644;2023-04-01T12:30:30;3.63;;;1.50;;
18647;SDS011;9453;50.294;18.644;2023-04-01T12:36:02;2.38;;;1.33;;
18647;SDS011;9453;50.294;18.644;2023-04-01T12:38:42;1.13;;;0.85;;
18647;SDS011;9453;50.294;18.644;2023-04-01T12:41:20;1.65;;;0.77;;
18647;SDS011;9453;50.294;18.644;2023-04-01T12:43:59;2.25;;;1.20;;
18647;SDS011;9453;50.294;18.644;2023-04-01T12:46:47;2.45;;;1.38;;
18647;SDS011;9453;50.294;18.644;2023-04-01T12:49:34;3.25;;;1.38;;
18647;SDS011;9453;50.294;18.644;2023-04-01T12:52:21;3.00;;;1.50;;
18647;SDS011;9453;50.294;18.644;2023-04-01T13:01:30;5.03;;;1.90;;
18647;SDS011;9453;50.294;18.644;2023-04-01T13:07:14;3.67;;;1.67;;
18647;SDS011;9453;50.294;18.644;2023-04-01T13:09:57;2.97;;;1.60;;
18647;SDS011;9453;50.294;18.644;2023-04-01T13:12:36;3.00;;;1.63;;
18647;SDS011;9453;50.294;18.644;2023-04-01T13:15:17;2.53;;;1.40;;
18647;SDS011;9453;50.294;18.644;2023-04-01T13:17:53;2.47;;;1.55;;
18647;SDS011;9453;50.294;18.644;2023-04-01T13:20:33;2.35;;;1.33;;
18647;SDS011;9453;50.294;18.644;2023-04-01T13:23:13;15.63;;;7.05;;
18647;SDS011;9453;50.294;18.644;2023-04-01T13:25:51;16.33;;;6.60;;
18647;SDS011;9453;50.294;18.644;2023-04-01T13:28:28;25.08;;;10.65;;
18647;SDS011;9453;50.294;18.644;2023-04-01T13:31:00;61.10;;;25.63;;
18647;SDS011;9453;50.294;18.644;2023-04-01T13:33:36;32.33;;;13.40;;
18647;SDS011;9453;50.294;18.644;2023-04-01T13:36:16;79.25;;;29.65;;
18647;SDS011;9453;50.294;18.644;2023-04-01T13:44:41;4.25;;;2.53;;
18647;SDS011;9453;50.294;18.644;2023-04-01T13:47:22;11.52;;;6.30;;
18647;SDS011;9453;50.294;18.644;2023-04-01T13:53:09;4.57;;;3.00;;
18647;SDS011;9453;50.294;18.644;2023-04-01T13:56:09;5.82;;;3.03;;
18647;SDS011;9453;50.294;18.644;2023-04-01T13:58:45;6.30;;;2.97;;
18647;SDS011;9453;50.294;18.644;2023-04-01T14:01:32;10.18;;;4.40;;
18647;SDS011;9453;50.294;18.644;2023-04-01T14:04:25;5.43;;;2.85;;
18647;SDS011;9453;50.294;18.644;2023-04-01T14:07:12;20.90;;;7.57;;
18647;SDS011;9453;50.294;18.644;2023-04-01T14:09:50;21.93;;;7.67;;
18647;SDS011;9453;50.294;18.644;2023-04-01T14:12:37;18.13;;;6.07;;
18647;SDS011;9453;50.294;18.644;2023-04-01T14:15:25;69.80;;;20.47;;
18647;SDS011;9453;50.294;18.644;2023-04-01T14:18:08;53.80;;;17.40;;
18647;SDS011;9453;50.294;18.644;2023-04-01T14:20:45;30.90;;;8.37;;
18647;SDS011;9453;50.294;18.644;2023-04-01T14:26:18;60.50;;;17.90;;
18647;SDS011;9453;50.294;18.644;2023-04-01T14:29:01;8.43;;;2.97;;
18647;SDS011;9453;50.294;18.644;2023-04-01T14:31:48;4.03;;;1.63;;
18647;SDS011;9453;50.294;18.644;2023-04-01T14:34:39;4.53;;;1.77;;
18647;SDS011;9453;50.294;18.644;2023-04-01T14:37:27;6.53;;;2.30;;
18647;SDS011;9453;50.294;18.644;2023-04-01T14:40:26;8.60;;;2.73;;
18647;SDS011;9453;50.294;18.644;2023-04-01T14:42:56;5.50;;;2.50;;
18647;SDS011;9453;50.294;18.644;2023-04-01T14:48:35;4.10;;;2.03;;
18647;SDS011;9453;50.294;18.644;2023-04-01T14:51:09;4.50;;;2.07;;
18647;SDS011;9453;50.294;18.644;2023-04-01T14:53:42;3.77;;;2.00;;
18647;SDS011;9453;50.294;18.644;2023-04-01T14:56:29;9.83;;;3.87;;
18647;SDS011;9453;50.294;18.644;2023-04-01T14:59:04;4.97;;;2.50;;
18647;SDS011;9453;50.294;18.644;2023-04-01T15:01:44;5.80;;;2.83;;
18647;SDS011;9453;50.294;18.644;2023-04-01T15:04:35;6.03;;;2.17;;
18647;SDS011;9453;50.294;18.644;2023-04-01T15:13:41;3.70;;;2.07;;
18647;SDS011;9453;50.294;18.644;2023-04-01T15:16:22;13.63;;;5.90;;
18647;SDS011;9453;50.294;18.644;2023-04-01T15:18:56;3.77;;;1.60;;
18647;SDS011;9453;50.294;18.644;2023-04-01T15:21:43;7.70;;;3.97;;
18647;SDS011;9453;50.294;18.644;2023-04-01T15:24:35;9.83;;;4.83;;
18647;SDS011;9453;50.294;18.644;2023-04-01T15:27:17;6.77;;;2.93;;
18647;SDS011;9453;50.294;18.644;2023-04-01T15:30:01;5.83;;;2.60;;
18647;SDS011;9453;50.294;18.644;2023-04-01T15:32:46;10.10;;;3.70;;
18647;SDS011;9453;50.294;18.644;2023-04-01T15:35:28;6.80;;;2.23;;
18647;SDS011;9453;50.294;18.644;2023-04-01T15:38:05;8.97;;;2.37;;
18647;SDS011;9453;50.294;18.644;2023-04-01T15:40:37;4.77;;;2.27;;
18647;SDS011;9453;50.294;18.644;2023-04-01T15:43:13;13.10;;;2.40;;
18647;SDS011;9453;50.294;18.644;2023-04-01T15:45:49;10.50;;;2.00;;
18647;SDS011;9453;50.294;18.644;2023-04-01T15:48:28;3.83;;;1.80;;
18647;SDS011;9453;50.294;18.644;2023-04-01T15:51:09;8.40;;;2.53;;
18647;SDS011;9453;50.294;18.644;2023-04-01T15:53:47;6.27;;;2.53;;
18647;SDS011;9453;50.294;18.644;2023-04-01T15:56:26;3.97;;;1.90;;
18647;SDS011;9453;50.294;18.644;2023-04-01T15:59:07;6.23;;;2.00;;
18647;SDS011;9453;50.294;18.644;2023-04-01T16:01:44;4.50;;;2.10;;
18647;SDS011;9453;50.294;18.644;2023-04-01T16:04:22;5.03;;;1.97;;
18647;SDS011;9453;50.294;18.644;2023-04-01T16:07:10;3.77;;;2.00;;
18647;SDS011;9453;50.294;18.644;2023-04-01T16:12:51;3.77;;;2.47;;
18647;SDS011;9453;50.294;18.644;2023-04-01T16:15:28;4.60;;;1.50;;
18647;SDS011;9453;50.294;18.644;2023-04-01T16:18:09;3.53;;;1.70;;
18647;SDS011;9453;50.294;18.644;2023-04-01T16:20:54;2.60;;;1.77;;
18647;SDS011;9453;50.294;18.644;2023-04-01T16:23:29;2.97;;;1.90;;
18647;SDS011;9453;50.294;18.644;2023-04-01T16:26:02;4.67;;;1.80;;
18647;SDS011;9453;50.294;18.644;2023-04-01T16:28:36;5.03;;;2.60;;
18647;SDS011;9453;50.294;18.644;2023-04-01T16:31:09;4.40;;;2.60;;
18647;SDS011;9453;50.294;18.644;2023-04-01T16:33:45;8.43;;;1.83;;
18647;SDS011;9453;50.294;18.644;2023-04-01T16:36:20;6.07;;;2.27;;
18647;SDS011;9453;50.294;18.644;2023-04-01T16:38:56;3.70;;;2.30;;
18647;SDS011;9453;50.294;18.644;2023-04-01T16:41:36;6.20;;;2.97;;
18647;SDS011;9453;50.294;18.644;2023-04-01T16:44:09;6.40;;;3.20;;
18647;SDS011;9453;50.294;18.644;2023-04-01T16:46:40;8.37;;;4.50;;
18647;SDS011;9453;50.294;18.644;2023-04-01T16:54:45;7.90;;;3.70;;
18647;SDS011;9453;50.294;18.644;2023-04-01T16:57:19;7.50;;;3.83;;
18647;SDS011;9453;50.294;18.644;2023-04-01T16:59:53;6.73;;;3.90;;
18647;SDS011;9453;50.294;18.644;2023-04-01T17:02:25;7.27;;;3.70;;
18647;SDS011;9453;50.294;18.644;2023-04-01T17:04:58;7.47;;;3.23;;
18647;SDS011;9453;50.294;18.644;2023-04-01T17:07:30;7.23;;;3.33;;
18647;SDS011;9453;50.294;18.644;2023-04-01T17:10:17;5.83;;;3.43;;
18647;SDS011;9453;50.294;18.644;2023-04-01T17:13:01;7.13;;;3.70;;
18647;SDS011;9453;50.294;18.644;2023-04-01T17:15:40;11.07;;;3.80;;
18647;SDS011;9453;50.294;18.644;2023-04-01T17:18:11;9.07;;;3.60;;
18647;SDS011;9453;50.294;18.644;2023-04-01T17:20:46;6.97;;;3.93;;
18647;SDS011;9453;50.294;18.644;2023-04-01T17:23:19;6.67;;;3.60;;
18647;SDS011;9453;50.294;18.644;2023-04-01T17:26:06;4.27;;;2.50;;
18647;SDS011;9453;50.294;18.644;2023-04-01T17:28:57;3.07;;;2.30;;
18647;SDS011;9453;50.294;18.644;2023-04-01T17:31:34;5.07;;;2.57;;
18647;SDS011;9453;50.294;18.644;2023-04-01T17:34:13;9.60;;;2.57;;
18647;SDS011;9453;50.294;18.644;2023-04-01T17:36:56;4.83;;;2.63;;
18647;SDS011;9453;50.294;18.644;2023-04-01T17:42:37;5.20;;;2.53;;
18647;SDS011;9453;50.294;18.644;2023-04-01T17:45:10;4.27;;;1.73;;
18647;SDS011;9453;50.294;18.644;2023-04-01T17:47:48;3.53;;;1.97;;
18647;SDS011;9453;50.294;18.644;2023-04-01T17:50:23;3.80;;;1.90;;
18647;SDS011;9453;50.294;18.644;2023-04-01T17:53:01;4.10;;;1.83;;
18647;SDS011;9453;50.294;18.644;2023-04-01T17:58:44;3.17;;;1.83;;
18647;SDS011;9453;50.294;18.644;2023-04-01T18:01:17;3.73;;;1.90;;
18647;SDS011;9453;50.294;18.644;2023-04-01T18:03:55;4.17;;;1.77;;
18647;SDS011;9453;50.294;18.644;2023-04-01T18:06:34;4.00;;;2.40;;
18647;SDS011;9453;50.294;18.644;2023-04-01T18:09:08;5.00;;;2.27;;
18647;SDS011;9453;50.294;18.644;2023-04-01T18:11:51;3.47;;;2.23;;
18647;SDS011;9453;50.294;18.644;2023-04-01T18:17:27;4.47;;;2.60;;
18647;SDS011;9453;50.294;18.644;2023-04-01T18:20:23;3.80;;;2.20;;
18647;SDS011;9453;50.294;18.644;2023-04-01T18:23:02;4.17;;;2.40;;
18647;SDS011;9453;50.294;18.644;2023-04-01T18:25:33;4.23;;;2.17;;
18647;SDS011;9453;50.294;18.644;2023-04-01T18:28:17;3.63;;;2.20;;
18647;SDS011;9453;50.294;18.644;2023-04-01T18:30:52;5.50;;;2.90;;
18647;SDS011;9453;50.294;18.644;2023-04-01T18:33:24;4.87;;;2.70;;
18647;SDS011;9453;50.294;18.644;2023-04-01T18:35:58;8.37;;;3.17;;
18647;SDS011;9453;50.294;18.644;2023-04-01T18:38:36;10.80;;;3.93;;
18647;SDS011;9453;50.294;18.644;2023-04-01T18:41:13;9.03;;;3.67;;
18647;SDS011;9453;50.294;18.644;2023-04-01T18:43:43;11.93;;;4.57;;
18647;SDS011;9453;50.294;18.644;2023-04-01T18:46:24;9.43;;;4.33;;
18647;SDS011;9453;50.294;18.644;2023-04-01T18:48:59;10.73;;;4.10;;
18647;SDS011;9453;50.294;18.644;2023-04-01T18:51:36;9.17;;;3.93;;
18647;SDS011;9453;50.294;18.644;2023-04-01T18:54:08;9.43;;;4.57;;
18647;SDS011;9453;50.294;18.644;2023-04-01T18:56:39;12.60;;;4.57;;
18647;SDS011;9453;50.294;18.644;2023-04-01T18:59:10;12.50;;;3.97;;
18647;SDS011;9453;50.294;18.644;2023-04-01T19:01:47;11.20;;;4.60;;
18647;SDS011;9453;50.294;18.644;2023-04-01T19:04:21;10.63;;;5.10;;
18647;SDS011;9453;50.294;18.644;2023-04-01T19:06:55;9.83;;;4.70;;
18647;SDS011;9453;50.294;18.644;2023-04-01T19:09:25;13.03;;;5.27;;
18647;SDS011;9453;50.294;18.644;2023-04-01T19:12:03;16.60;;;6.63;;
18647;SDS011;9453;50.294;18.644;2023-04-01T19:18:13;17.50;;;6.20;;
18647;SDS011;9453;50.294;18.644;2023-04-01T19:20:59;14.43;;;6.67;;
18647;SDS011;9453;50.294;18.644;2023-04-01T19:23:42;14.37;;;7.43;;
18647;SDS011;9453;50.294;18.644;2023-04-01T19:26:30;18.93;;;8.17;;
18647;SDS011;9453;50.294;18.644;2023-04-01T19:29:02;18.80;;;8.47;;
18647;SDS011;9453;50.294;18.644;2023-04-01T19:31:36;24.90;;;12.13;;
18647;SDS011;9453;50.294;18.644;2023-04-01T19:34:19;30.70;;;13.90;;
18647;SDS011;9453;50.294;18.644;2023-04-01T19:36:53;29.53;;;12.43;;
18647;SDS011;9453;50.294;18.644;2023-04-01T19:39:27;23.60;;;12.40;;
18647;SDS011;9453;50.294;18.644;2023-04-01T19:42:02;27.83;;;12.13;;
18647;SDS011;9453;50.294;18.644;2023-04-01T19:44:38;22.17;;;10.97;;
18647;SDS011;9453;50.294;18.644;2023-04-01T19:47:13;21.57;;;10.63;;
18647;SDS011;9453;50.294;18.644;2023-04-01T19:49:51;19.50;;;9.00;;
18647;SDS011;9453;50.294;18.644;2023-04-01T19:52:28;17.23;;;8.40;;
18647;SDS011;9453;50.294;18.644;2023-04-01T19:54:59;21.67;;;9.33;;
18647;SDS011;9453;50.294;18.644;2023-04-01T19:57:34;16.67;;;8.70;;
18647;SDS011;9453;50.294;18.644;2023-04-01T20:00:14;17.17;;;7.90;;
18647;SDS011;9453;50.294;18.644;2023-04-01T20:05:35;24.30;;;12.00;;
18647;SDS011;9453;50.294;18.644;2023-04-01T20:08:22;22.03;;;11.40;;
18647;SDS011;9453;50.294;18.644;2023-04-01T20:11:00;22.63;;;11.07;;
18647;SDS011;9453;50.294;18.644;2023-04-01T20:13:40;22.47;;;10.50;;
18647;SDS011;9453;50.294;18.644;2023-04-01T20:16:14;24.10;;;11.03;;
18647;SDS011;9453;50.294;18.644;2023-04-01T20:18:45;69.60;;;23.73;;
18647;SDS011;9453;50.294;18.644;2023-04-01T20:21:21;69.60;;;23.53;;
18647;SDS011;9453;50.294;18.644;2023-04-01T20:23:56;48.73;;;20.20;;
18647;SDS011;9453;50.294;18.644;2023-04-01T20:26:26;37.97;;;17.57;;
18647;SDS011;9453;50.294;18.644;2023-04-01T20:29:04;39.70;;;16.23;;
18647;SDS011;9453;50.294;18.644;2023-04-01T20:31:41;34.57;;;15.47;;
18647;SDS011;9453;50.294;18.644;2023-04-01T20:37:13;35.30;;;16.90;;
18647;SDS011;9453;50.294;18.644;2023-04-01T20:39:57;35.03;;;16.60;;
18647;SDS011;9453;50.294;18.644;2023-04-01T20:43:04;32.07;;;15.57;;
18647;SDS011;9453;50.294;18.644;2023-04-01T20:46:06;43.53;;;18.73;;
18647;SDS011;9453;50.294;18.644;2023-04-01T20:48:53;51.70;;;21.00;;
18647;SDS011;9453;50.294;18.644;2023-04-01T20:51:45;50.03;;;20.47;;
18647;SDS011;9453;50.294;18.644;2023-04-01T20:54:22;55.83;;;23.93;;
18647;SDS011;9453;50.294;18.644;2023-04-01T20:57:00;50.87;;;20.63;;
18647;SDS011;9453;50.294;18.644;2023-04-01T20:59:41;47.70;;;19.67;;
18647;SDS011;9453;50.294;18.644;2023-04-01T21:02:46;47.17;;;19.17;;
18647;SDS011;9453;50.294;18.644;2023-04-01T21:05:38;39.40;;;17.50;;
18647;SDS011;9453;50.294;18.644;2023-04-01T21:08:19;33.63;;;14.63;;
18647;SDS011;9453;50.294;18.644;2023-04-01T21:10:58;31.50;;;14.13;;
18647;SDS011;9453;50.294;18.644;2023-04-01T21:13:34;29.47;;;13.37;;
18647;SDS011;9453;50.294;18.644;2023-04-01T21:16:11;24.70;;;12.07;;
18647;SDS011;9453;50.294;18.644;2023-04-01T21:18:52;20.03;;;10.37;;
18647;SDS011;9453;50.294;18.644;2023-04-01T21:21:33;16.33;;;8.77;;
18647;SDS011;9453;50.294;18.644;2023-04-01T21:27:13;19.70;;;9.63;;
18647;SDS011;9453;50.294;18.644;2023-04-01T21:29:53;16.60;;;8.30;;
18647;SDS011;9453;50.294;18.644;2023-04-01T21:32:33;14.47;;;7.47;;
18647;SDS011;9453;50.294;18.644;2023-04-01T21:35:11;16.03;;;8.17;;
18647;SDS011;9453;50.294;18.644;2023-04-01T21:37:54;15.90;;;7.77;;
18647;SDS011;9453;50.294;18.644;2023-04-01T21:40:38;17.43;;;7.90;;
18647;SDS011;9453;50.294;18.644;2023-04-01T21:43:17;14.70;;;7.40;;
18647;SDS011;9453;50.294;18.644;2023-04-01T21:46:10;14.57;;;6.73;;
18647;SDS011;9453;50.294;18.644;2023-04-01T21:48:59;13.80;;;6.47;;
18647;SDS011;9453;50.294;18.644;2023-04-01T21:51:57;13.57;;;7.40;;
18647;SDS011;9453;50.294;18.644;2023-04-01T21:54:51;15.47;;;7.57;;
18647;SDS011;9453;50.294;18.644;2023-04-01T21:57:59;15.53;;;7.73;;